Terminal Aerodrome Forecast
Issued by NWS

Home | Current Version | Previous Version | Text Only | Print | Product List | Glossary On
Versions: 1 2 3 4 5 6 7 8 9 10 11 12 13 14
261
FTUS45 KTFX 290520
TAFLWT
TAF
KLWT 290520Z 2906/3006 VRB05KT P6SM FEW060
     FM291400 VRB05KT P6SM SCT060
     FM291800 24010KT P6SM VCSH BKN060
     FM300300 19008KT P6SM SCT060=

USA.gov is the U.S. government's official web portal to all federal, state and local government web resources and services.